createdAt,value
2022-08-05T00:01:28.548Z,2.65
2022-08-05T00:06:33.214Z,2.42
2022-08-05T00:11:45.212Z,2.40
2022-08-05T00:16:53.425Z,2.28
2022-08-05T00:21:55.511Z,2.25
2022-08-05T00:26:57.214Z,2.13
2022-08-05T00:32:12.262Z,2.45
2022-08-05T00:37:16.173Z,2.30
2022-08-05T00:42:31.584Z,2.20
2022-08-05T00:47:52.958Z,2.78
2022-08-05T00:52:55.542Z,2.65
2022-08-05T00:57:58.925Z,2.00
2022-08-05T01:03:00.779Z,2.17
2022-08-05T01:08:42.111Z,2.80
2022-08-05T01:13:57.454Z,2.40
2022-08-05T01:18:58.050Z,2.47
2022-08-05T01:24:23.471Z,2.75
2022-08-05T01:29:47.907Z,2.30
2022-08-05T01:34:59.300Z,2.72
2022-08-05T01:40:02.633Z,2.60
2022-08-05T01:45:08.200Z,2.60
2022-08-05T01:50:15.772Z,2.65
2022-08-05T01:55:21.668Z,2.88
2022-08-05T02:00:30.429Z,3.10
2022-08-05T02:05:35.860Z,2.87
2022-08-05T02:10:56.191Z,3.00
2022-08-05T02:16:04.237Z,3.25
2022-08-05T02:21:21.935Z,3.42
2022-08-05T02:26:27.896Z,2.70
2022-08-05T02:31:34.823Z,2.60
2022-08-05T02:36:42.685Z,2.95
2022-08-05T02:42:00.603Z,2.90
2022-08-05T02:47:05.281Z,3.47
2022-08-05T02:52:11.398Z,2.78
2022-08-05T02:58:09.766Z,2.55
2022-08-05T03:02:39.859Z,3.17
2022-08-05T03:08:06.648Z,3.22
2022-08-05T03:13:16.752Z,3.33
2022-08-05T03:18:18.682Z,3.55
2022-08-05T03:23:26.949Z,2.85
2022-08-05T03:28:31.635Z,3.30
2022-08-05T03:33:49.350Z,3.22
2022-08-05T03:38:54.209Z,3.60
2022-08-05T03:44:08.123Z,3.28
2022-08-05T03:49:11.647Z,2.97
2022-08-05T03:55:33.957Z,3.40
2022-08-05T03:59:54.489Z,3.38
2022-08-05T04:04:59.038Z,3.50
2022-08-05T04:10:01.628Z,3.17
2022-08-05T04:15:06.072Z,3.60
2022-08-05T04:20:19.867Z,2.72
2022-08-05T04:25:38.469Z,3.58
2022-08-05T04:30:43.255Z,3.67
2022-08-05T04:36:16.813Z,3.70
2022-08-05T04:41:07.314Z,3.72
2022-08-05T04:46:10.990Z,3.85
2022-08-05T04:51:14.775Z,3.67
2022-08-05T04:56:34.876Z,3.47
2022-08-05T05:02:35.737Z,3.33
2022-08-05T05:06:59.509Z,3.08
2022-08-05T05:12:03.114Z,3.40
2022-08-05T05:17:07.339Z,3.47
2022-08-05T05:22:24.258Z,3.47
2022-08-05T05:27:41.253Z,3.78
2022-08-05T05:32:46.959Z,3.20
2022-08-05T05:38:00.101Z,3.20
2022-08-05T05:43:03.794Z,3.35
2022-08-05T05:48:08.923Z,3.63
2022-08-05T05:53:22.459Z,3.13
2022-08-05T05:58:31.947Z,2.95
2022-08-05T06:03:53.701Z,3.38
2022-08-05T06:08:55.562Z,3.55
2022-08-05T06:13:57.253Z,3.67
2022-08-05T06:19:00.818Z,3.28
2022-08-05T06:24:03.326Z,3.05
2022-08-05T06:29:24.681Z,3.95
2022-08-05T06:34:26.599Z,3.30
2022-08-05T06:39:29.547Z,2.53
2022-08-05T06:44:32.883Z,2.60
2022-08-05T06:50:01.964Z,2.70
2022-08-05T06:54:55.983Z,2.22
2022-08-05T06:59:58.324Z,2.38
2022-08-05T07:04:59.954Z,3.05
2022-08-05T07:10:03.357Z,2.13
2022-08-05T07:15:34.799Z,2.25
2022-08-05T07:20:47.870Z,2.10
2022-08-05T07:25:55.385Z,1.80
2022-08-05T07:30:58.380Z,2.05
2022-08-05T07:36:04.001Z,1.90
2022-08-05T07:42:14.223Z,2.20
2022-08-05T07:46:48.255Z,1.88
2022-08-05T07:51:54.694Z,2.05
2022-08-05T07:57:02.934Z,1.80
2022-08-05T08:02:18.455Z,1.80
2022-08-05T08:07:22.003Z,1.77
2022-08-05T08:12:35.181Z,1.95
2022-08-05T08:17:43.960Z,1.92
2022-08-05T08:22:59.411Z,2.05
2022-08-05T08:28:04.903Z,1.92
2022-08-05T08:33:13.836Z,1.92
2022-08-05T08:38:16.719Z,2.08
2022-08-05T08:45:24.352Z,2.13
2022-08-05T08:50:03.782Z,1.98
2022-08-05T08:54:21.456Z,1.77
2022-08-05T08:59:33.600Z,2.05
2022-08-05T09:04:58.386Z,2.00
2022-08-05T09:09:59.330Z,1.77
2022-08-05T09:15:06.725Z,2.10
2022-08-05T09:20:12.844Z,2.00
2022-08-05T09:26:01.668Z,1.70
2022-08-05T09:31:43.176Z,1.30
2022-08-05T09:36:56.317Z,1.30
2022-08-05T09:42:03.949Z,1.30
2022-08-05T09:47:16.221Z,1.20
2022-08-05T09:52:22.461Z,1.40
2022-08-05T09:57:30.719Z,1.33
2022-08-05T10:02:42.676Z,1.40
2022-08-05T10:08:10.581Z,1.35
2022-08-05T10:13:10.161Z,1.77
2022-08-05T10:18:17.434Z,1.65
2022-08-05T10:23:55.517Z,1.65
2022-08-05T10:28:46.328Z,1.40
2022-08-05T10:33:54.245Z,1.45
2022-08-05T10:39:10.211Z,1.60
2022-08-05T10:44:15.954Z,1.85
2022-08-05T10:49:19.256Z,1.70
2022-08-05T10:55:05.855Z,1.60
2022-08-05T11:00:19.736Z,1.70
2022-08-05T11:05:24.308Z,1.60
2022-08-05T11:10:32.737Z,1.42
2022-08-05T11:15:59.362Z,1.20
2022-08-05T11:26:28.419Z,1.83
2022-08-05T11:31:57.608Z,1.63
2022-08-05T11:36:53.924Z,1.80
2022-08-05T11:42:04.229Z,1.42
2022-08-05T11:47:11.694Z,1.85
2022-08-05T11:52:29.064Z,1.55
2022-08-05T11:57:39.318Z,1.70
2022-08-05T12:02:53.378Z,1.58
2022-08-05T12:08:07.258Z,1.63
2022-08-05T12:13:15.551Z,1.60
2022-08-05T12:18:20.580Z,1.75
2022-08-05T12:23:25.807Z,1.48
2022-08-05T12:28:37.067Z,1.40
2022-08-05T12:33:39.752Z,1.65
2022-08-05T12:38:45.032Z,1.38
2022-08-05T12:43:56.987Z,1.40
2022-08-05T12:49:13.238Z,1.70
2022-08-05T12:54:33.617Z,1.60
2022-08-05T13:02:04.063Z,1.50
2022-08-05T13:05:12.655Z,1.65
2022-08-05T13:10:19.602Z,1.73
2022-08-05T13:15:24.398Z,2.05
2022-08-05T13:20:40.366Z,1.85
2022-08-05T13:25:52.701Z,1.50
2022-08-05T13:31:10.931Z,1.92
2022-08-05T13:36:15.775Z,2.22
2022-08-05T13:41:17.390Z,2.60
2022-08-05T13:46:35.703Z,2.40
2022-08-05T13:51:46.502Z,2.65
2022-08-05T13:56:51.689Z,2.70
2022-08-05T14:02:00.005Z,2.60
2022-08-05T14:07:26.337Z,3.00
2022-08-05T14:12:32.255Z,3.47
2022-08-05T14:17:34.852Z,3.20
2022-08-05T14:22:37.151Z,3.20
2022-08-05T14:27:38.724Z,3.15
2022-08-05T14:32:49.111Z,3.00
2022-08-05T14:37:55.468Z,2.75
2022-08-05T14:42:57.270Z,2.90
2022-08-05T14:48:05.345Z,3.17
2022-08-05T14:53:07.752Z,2.60
2022-08-05T14:58:10.941Z,2.83
2022-08-05T15:03:13.893Z,3.30
2022-08-05T15:08:17.960Z,3.63
2022-08-05T15:13:46.474Z,3.63
2022-08-05T15:18:51.920Z,3.55
2022-08-05T15:23:54.310Z,3.90
2022-08-05T15:28:55.870Z,4.13
2022-08-05T15:34:31.292Z,4.30
2022-08-05T15:41:00.281Z,3.97
2022-08-05T15:44:44.193Z,3.90
2022-08-05T15:49:55.951Z,3.58
2022-08-05T15:55:01.195Z,3.63
2022-08-05T16:00:07.998Z,3.30
2022-08-05T16:05:09.783Z,3.15
2022-08-05T16:10:12.983Z,2.83
2022-08-05T16:15:18.776Z,2.80
2022-08-05T16:20:20.528Z,2.60
2022-08-05T16:25:22.078Z,2.50
2022-08-05T16:30:34.549Z,2.40
2022-08-05T16:35:42.967Z,2.67
2022-08-05T16:40:51.846Z,2.47
2022-08-05T16:46:06.598Z,3.45
2022-08-05T16:51:11.025Z,5.20
2022-08-05T16:56:12.723Z,6.30
2022-08-05T17:01:14.579Z,7.00
2022-08-05T17:06:16.449Z,7.05
2022-08-05T17:11:18.571Z,5.85
2022-08-05T17:16:30.258Z,5.18
2022-08-05T17:21:36.749Z,4.22
2022-08-05T17:26:39.104Z,4.50
2022-08-05T17:31:58.259Z,4.00
2022-08-05T17:37:00.744Z,4.40
2022-08-05T17:42:17.860Z,2.65
2022-08-05T17:47:22.928Z,4.03
2022-08-05T17:52:25.577Z,3.97
2022-08-05T17:57:28.247Z,3.70
2022-08-05T18:02:29.891Z,4.00
2022-08-05T18:07:32.988Z,3.90
2022-08-05T18:12:43.388Z,4.38
2022-08-05T18:18:00.903Z,4.47
2022-08-05T18:23:11.206Z,5.07
2022-08-05T18:28:16.163Z,5.13
2022-08-05T18:33:24.084Z,4.85
2022-08-05T18:38:26.646Z,5.35
2022-08-05T18:43:31.654Z,5.65
2022-08-05T18:48:41.706Z,6.47
2022-08-05T18:53:50.250Z,7.75
2022-08-05T18:58:54.681Z,8.85
2022-08-05T19:03:56.792Z,8.43
2022-08-05T19:08:58.357Z,8.30
2022-08-05T19:14:19.966Z,8.20
2022-08-05T19:19:24.659Z,7.10
2022-08-05T19:24:34.328Z,6.20
2022-08-05T19:29:36.711Z,6.25
2022-08-05T19:34:40.648Z,6.10
2022-08-05T19:39:45.225Z,5.45
2022-08-05T19:44:53.238Z,4.97
2022-08-05T19:50:00.807Z,4.45
2022-08-05T19:55:06.882Z,5.13
2022-08-05T20:00:09.796Z,3.92
2022-08-05T20:05:16.403Z,3.97
2022-08-05T20:10:25.802Z,3.03
2022-08-05T20:15:48.735Z,3.38
2022-08-05T20:20:50.768Z,2.90
2022-08-05T20:25:52.551Z,3.10
2022-08-05T20:30:55.147Z,2.70
2022-08-05T20:35:56.768Z,2.40
2022-08-05T20:41:00.066Z,2.22
2022-08-05T20:46:06.831Z,2.10
2022-08-05T20:51:08.524Z,2.20
2022-08-05T20:56:10.110Z,1.70
2022-08-05T21:01:13.908Z,1.75
2022-08-05T21:06:27.721Z,1.25
2022-08-05T21:12:07.498Z,1.45
2022-08-05T21:16:51.919Z,1.27
2022-08-05T21:21:53.450Z,1.17
2022-08-05T21:26:58.654Z,1.33
2022-08-05T21:32:03.957Z,0.85
2022-08-05T21:37:05.663Z,1.38
2022-08-05T21:42:07.590Z,1.08
2022-08-05T21:47:55.683Z,1.25
2022-08-05T21:52:50.803Z,0.95
2022-08-05T21:57:52.549Z,1.10
2022-08-05T22:02:55.646Z,0.90
2022-08-05T22:08:02.089Z,1.00
2022-08-05T22:13:09.373Z,1.05
2022-08-05T22:18:25.943Z,1.30
2022-08-05T22:24:02.677Z,1.08
2022-08-05T22:29:06.669Z,1.25
2022-08-05T22:34:08.197Z,1.00
2022-08-05T22:39:12.689Z,1.45
2022-08-05T22:44:14.595Z,1.27
2022-08-05T22:50:17.984Z,1.40
2022-08-05T22:54:46.663Z,1.38
2022-08-05T22:59:54.088Z,1.20
2022-08-05T23:04:55.967Z,1.08
2022-08-05T23:10:01.508Z,1.17
2022-08-05T23:15:08.726Z,1.55
2022-08-05T23:20:17.877Z,1.38
2022-08-05T23:25:52.436Z,1.10
2022-08-05T23:30:43.466Z,1.42
2022-08-05T23:35:45.601Z,1.30
2022-08-05T23:40:50.087Z,1.20
2022-08-05T23:45:52.056Z,1.20
2022-08-05T23:50:53.598Z,1.40
2022-08-05T23:55:55.174Z,1.40
